sensor_id;sensor_type;location;lat;lon;timestamp;P1;durP1;ratioP1;P2;durP2;ratioP2
53881;SDS011;39794;55.782;37.452;2022-10-19T00:01:13;0.88;;;0.70;;
53881;SDS011;39794;55.782;37.452;2022-10-19T00:03:44;1.10;;;0.60;;
53881;SDS011;39794;55.782;37.452;2022-10-19T00:06:15;0.55;;;0.50;;
53881;SDS011;39794;55.782;37.452;2022-10-19T00:08:45;1.35;;;0.95;;
53881;SDS011;39794;55.782;37.452;2022-10-19T00:11:14;1.48;;;0.50;;
53881;SDS011;39794;55.782;37.452;2022-10-19T00:13:42;8.50;;;0.70;;
53881;SDS011;39794;55.782;37.452;2022-10-19T00:16:11;1.05;;;0.60;;
53881;SDS011;39794;55.782;37.452;2022-10-19T00:18:41;1.05;;;0.70;;
53881;SDS011;39794;55.782;37.452;2022-10-19T00:21:12;0.85;;;0.60;;
53881;SDS011;39794;55.782;37.452;2022-10-19T00:23:42;1.05;;;0.65;;
53881;SDS011;39794;55.782;37.452;2022-10-19T00:26:10;1.55;;;0.88;;
53881;SDS011;39794;55.782;37.452;2022-10-19T00:28:39;1.48;;;0.60;;
53881;SDS011;39794;55.782;37.452;2022-10-19T00:31:10;0.90;;;0.80;;
53881;SDS011;39794;55.782;37.452;2022-10-19T00:33:39;0.70;;;0.70;;
53881;SDS011;39794;55.782;37.452;2022-10-19T00:36:14;2.90;;;0.80;;
53881;SDS011;39794;55.782;37.452;2022-10-19T00:38:43;1.08;;;0.75;;
53881;SDS011;39794;55.782;37.452;2022-10-19T00:41:15;1.75;;;0.95;;
53881;SDS011;39794;55.782;37.452;2022-10-19T00:43:53;1.45;;;0.70;;
53881;SDS011;39794;55.782;37.452;2022-10-19T00:46:24;1.23;;;0.80;;
53881;SDS011;39794;55.782;37.452;2022-10-19T00:48:57;2.10;;;1.05;;
53881;SDS011;39794;55.782;37.452;2022-10-19T00:51:30;0.80;;;0.73;;
53881;SDS011;39794;55.782;37.452;2022-10-19T00:53:59;2.80;;;1.00;;
53881;SDS011;39794;55.782;37.452;2022-10-19T00:56:28;1.70;;;0.85;;
53881;SDS011;39794;55.782;37.452;2022-10-19T00:58:57;2.85;;;0.82;;
53881;SDS011;39794;55.782;37.452;2022-10-19T01:01:25;1.55;;;0.90;;
53881;SDS011;39794;55.782;37.452;2022-10-19T01:03:54;1.17;;;0.77;;
53881;SDS011;39794;55.782;37.452;2022-10-19T01:06:22;2.38;;;0.77;;
53881;SDS011;39794;55.782;37.452;2022-10-19T01:08:52;1.48;;;0.88;;
53881;SDS011;39794;55.782;37.452;2022-10-19T01:11:24;2.47;;;1.02;;
53881;SDS011;39794;55.782;37.452;2022-10-19T01:14:02;1.55;;;0.90;;
53881;SDS011;39794;55.782;37.452;2022-10-19T01:16:42;2.00;;;1.00;;
53881;SDS011;39794;55.782;37.452;2022-10-19T01:19:22;1.73;;;1.20;;
53881;SDS011;39794;55.782;37.452;2022-10-19T01:22:05;3.20;;;1.20;;
53881;SDS011;39794;55.782;37.452;2022-10-19T01:24:46;4.53;;;1.30;;
53881;SDS011;39794;55.782;37.452;2022-10-19T01:27:43;2.28;;;1.05;;
53881;SDS011;39794;55.782;37.452;2022-10-19T01:30:36;2.60;;;1.20;;
53881;SDS011;39794;55.782;37.452;2022-10-19T01:33:25;3.28;;;1.27;;
53881;SDS011;39794;55.782;37.452;2022-10-19T01:36:03;1.85;;;1.20;;
53881;SDS011;39794;55.782;37.452;2022-10-19T01:38:36;3.70;;;1.38;;
53881;SDS011;39794;55.782;37.452;2022-10-19T01:41:14;4.03;;;1.33;;
53881;SDS011;39794;55.782;37.452;2022-10-19T01:43:44;1.92;;;0.93;;
53881;SDS011;39794;55.782;37.452;2022-10-19T01:46:18;1.65;;;0.98;;
53881;SDS011;39794;55.782;37.452;2022-10-19T01:48:50;1.85;;;1.02;;
53881;SDS011;39794;55.782;37.452;2022-10-19T01:51:21;2.22;;;0.95;;
53881;SDS011;39794;55.782;37.452;2022-10-19T01:53:52;1.17;;;0.75;;
53881;SDS011;39794;55.782;37.452;2022-10-19T01:56:24;1.67;;;0.80;;
53881;SDS011;39794;55.782;37.452;2022-10-19T01:58:55;2.47;;;1.02;;
53881;SDS011;39794;55.782;37.452;2022-10-19T02:01:36;2.15;;;1.20;;
53881;SDS011;39794;55.782;37.452;2022-10-19T02:04:07;2.33;;;1.13;;
53881;SDS011;39794;55.782;37.452;2022-10-19T02:06:37;1.83;;;1.08;;
53881;SDS011;39794;55.782;37.452;2022-10-19T02:09:06;2.30;;;1.02;;
53881;SDS011;39794;55.782;37.452;2022-10-19T02:11:35;2.28;;;1.17;;
53881;SDS011;39794;55.782;37.452;2022-10-19T02:14:05;1.63;;;0.88;;
53881;SDS011;39794;55.782;37.452;2022-10-19T02:16:39;1.90;;;1.08;;
53881;SDS011;39794;55.782;37.452;2022-10-19T02:21:39;1.92;;;1.05;;
53881;SDS011;39794;55.782;37.452;2022-10-19T02:24:08;1.52;;;1.20;;
53881;SDS011;39794;55.782;37.452;2022-10-19T02:26:36;1.67;;;1.10;;
53881;SDS011;39794;55.782;37.452;2022-10-19T02:29:05;1.15;;;1.00;;
53881;SDS011;39794;55.782;37.452;2022-10-19T02:31:34;2.78;;;1.23;;
53881;SDS011;39794;55.782;37.452;2022-10-19T02:34:03;1.83;;;1.20;;
53881;SDS011;39794;55.782;37.452;2022-10-19T02:36:32;1.52;;;1.30;;
53881;SDS011;39794;55.782;37.452;2022-10-19T02:39:00;3.60;;;1.30;;
53881;SDS011;39794;55.782;37.452;2022-10-19T02:41:30;1.52;;;1.10;;
53881;SDS011;39794;55.782;37.452;2022-10-19T02:44:02;2.80;;;1.20;;
53881;SDS011;39794;55.782;37.452;2022-10-19T02:46:34;3.42;;;1.10;;
53881;SDS011;39794;55.782;37.452;2022-10-19T02:49:09;2.15;;;1.25;;
53881;SDS011;39794;55.782;37.452;2022-10-19T02:51:38;3.30;;;1.27;;
53881;SDS011;39794;55.782;37.452;2022-10-19T02:54:07;2.42;;;1.25;;
53881;SDS011;39794;55.782;37.452;2022-10-19T02:56:36;2.95;;;1.60;;
53881;SDS011;39794;55.782;37.452;2022-10-19T02:59:04;1.75;;;1.40;;
53881;SDS011;39794;55.782;37.452;2022-10-19T03:01:33;2.22;;;1.40;;
53881;SDS011;39794;55.782;37.452;2022-10-19T03:04:01;2.08;;;1.30;;
53881;SDS011;39794;55.782;37.452;2022-10-19T03:06:31;2.47;;;1.30;;
53881;SDS011;39794;55.782;37.452;2022-10-19T03:08:59;2.72;;;1.45;;
53881;SDS011;39794;55.782;37.452;2022-10-19T03:11:27;3.30;;;1.60;;
53881;SDS011;39794;55.782;37.452;2022-10-19T03:13:56;2.55;;;1.67;;
53881;SDS011;39794;55.782;37.452;2022-10-19T03:16:24;1.95;;;1.38;;
53881;SDS011;39794;55.782;37.452;2022-10-19T03:18:52;2.80;;;1.40;;
53881;SDS011;39794;55.782;37.452;2022-10-19T03:21:21;2.40;;;1.23;;
53881;SDS011;39794;55.782;37.452;2022-10-19T03:23:50;3.50;;;1.13;;
53881;SDS011;39794;55.782;37.452;2022-10-19T03:26:20;1.55;;;1.15;;
53881;SDS011;39794;55.782;37.452;2022-10-19T03:28:48;2.05;;;1.08;;
53881;SDS011;39794;55.782;37.452;2022-10-19T03:31:16;1.40;;;0.95;;
53881;SDS011;39794;55.782;37.452;2022-10-19T03:33:45;2.78;;;0.95;;
53881;SDS011;39794;55.782;37.452;2022-10-19T03:36:18;1.42;;;1.13;;
53881;SDS011;39794;55.782;37.452;2022-10-19T03:38:48;2.15;;;1.17;;
53881;SDS011;39794;55.782;37.452;2022-10-19T03:41:19;1.52;;;1.15;;
53881;SDS011;39794;55.782;37.452;2022-10-19T03:43:48;2.25;;;1.23;;
53881;SDS011;39794;55.782;37.452;2022-10-19T03:46:17;3.85;;;1.05;;
53881;SDS011;39794;55.782;37.452;2022-10-19T03:48:46;1.23;;;1.10;;
53881;SDS011;39794;55.782;37.452;2022-10-19T03:51:16;1.98;;;1.27;;
53881;SDS011;39794;55.782;37.452;2022-10-19T03:53:46;3.50;;;1.08;;
53881;SDS011;39794;55.782;37.452;2022-10-19T03:56:16;2.22;;;1.45;;
53881;SDS011;39794;55.782;37.452;2022-10-19T03:58:46;2.15;;;1.42;;
53881;SDS011;39794;55.782;37.452;2022-10-19T04:01:16;1.55;;;1.30;;
53881;SDS011;39794;55.782;37.452;2022-10-19T04:03:46;1.35;;;1.13;;
53881;SDS011;39794;55.782;37.452;2022-10-19T04:06:15;2.22;;;1.42;;
53881;SDS011;39794;55.782;37.452;2022-10-19T04:08:47;1.70;;;1.10;;
53881;SDS011;39794;55.782;37.452;2022-10-19T04:11:17;4.38;;;2.03;;
53881;SDS011;39794;55.782;37.452;2022-10-19T04:13:49;4.65;;;2.00;;
53881;SDS011;39794;55.782;37.452;2022-10-19T04:16:17;2.20;;;1.85;;
53881;SDS011;39794;55.782;37.452;2022-10-19T04:18:46;5.13;;;2.20;;
53881;SDS011;39794;55.782;37.452;2022-10-19T04:21:21;3.85;;;2.25;;
53881;SDS011;39794;55.782;37.452;2022-10-19T04:23:50;2.47;;;2.28;;
53881;SDS011;39794;55.782;37.452;2022-10-19T04:26:21;3.35;;;2.50;;
53881;SDS011;39794;55.782;37.452;2022-10-19T04:28:49;3.28;;;2.33;;
53881;SDS011;39794;55.782;37.452;2022-10-19T04:31:17;5.55;;;2.80;;
53881;SDS011;39794;55.782;37.452;2022-10-19T04:33:46;2.70;;;2.22;;
53881;SDS011;39794;55.782;37.452;2022-10-19T04:36:14;3.63;;;2.58;;
53881;SDS011;39794;55.782;37.452;2022-10-19T04:38:43;4.63;;;2.50;;
53881;SDS011;39794;55.782;37.452;2022-10-19T04:41:12;4.43;;;2.70;;
53881;SDS011;39794;55.782;37.452;2022-10-19T04:43:43;4.18;;;3.13;;
53881;SDS011;39794;55.782;37.452;2022-10-19T04:46:12;4.60;;;2.80;;
53881;SDS011;39794;55.782;37.452;2022-10-19T04:48:42;5.38;;;4.05;;
53881;SDS011;39794;55.782;37.452;2022-10-19T04:51:11;5.05;;;3.83;;
53881;SDS011;39794;55.782;37.452;2022-10-19T04:53:40;5.70;;;3.60;;
53881;SDS011;39794;55.782;37.452;2022-10-19T04:56:10;6.20;;;4.13;;
53881;SDS011;39794;55.782;37.452;2022-10-19T04:58:40;5.45;;;3.40;;
53881;SDS011;39794;55.782;37.452;2022-10-19T05:01:10;4.72;;;3.72;;
53881;SDS011;39794;55.782;37.452;2022-10-19T05:03:43;8.48;;;4.13;;
53881;SDS011;39794;55.782;37.452;2022-10-19T05:06:12;6.63;;;4.45;;
53881;SDS011;39794;55.782;37.452;2022-10-19T05:08:41;6.03;;;4.05;;
53881;SDS011;39794;55.782;37.452;2022-10-19T05:11:11;5.70;;;4.75;;
53881;SDS011;39794;55.782;37.452;2022-10-19T05:13:41;7.57;;;4.38;;
53881;SDS011;39794;55.782;37.452;2022-10-19T05:16:12;7.47;;;4.95;;
53881;SDS011;39794;55.782;37.452;2022-10-19T05:18:41;9.48;;;6.10;;
53881;SDS011;39794;55.782;37.452;2022-10-19T05:21:10;8.45;;;5.53;;
53881;SDS011;39794;55.782;37.452;2022-10-19T05:23:39;9.05;;;5.90;;
53881;SDS011;39794;55.782;37.452;2022-10-19T05:26:09;10.68;;;7.00;;
53881;SDS011;39794;55.782;37.452;2022-10-19T05:28:38;9.52;;;6.40;;
53881;SDS011;39794;55.782;37.452;2022-10-19T05:31:08;10.57;;;6.88;;
53881;SDS011;39794;55.782;37.452;2022-10-19T05:33:39;10.13;;;6.82;;
53881;SDS011;39794;55.782;37.452;2022-10-19T05:36:11;13.07;;;7.25;;
53881;SDS011;39794;55.782;37.452;2022-10-19T05:38:41;12.15;;;6.88;;
53881;SDS011;39794;55.782;37.452;2022-10-19T05:41:11;9.32;;;5.65;;
53881;SDS011;39794;55.782;37.452;2022-10-19T05:43:39;8.30;;;5.28;;
53881;SDS011;39794;55.782;37.452;2022-10-19T05:46:09;9.80;;;5.43;;
53881;SDS011;39794;55.782;37.452;2022-10-19T05:48:40;8.93;;;5.72;;
53881;SDS011;39794;55.782;37.452;2022-10-19T05:51:09;7.65;;;5.28;;
53881;SDS011;39794;55.782;37.452;2022-10-19T05:53:39;10.48;;;5.15;;
53881;SDS011;39794;55.782;37.452;2022-10-19T05:56:08;9.68;;;4.90;;
53881;SDS011;39794;55.782;37.452;2022-10-19T05:58:40;7.35;;;4.63;;
53881;SDS011;39794;55.782;37.452;2022-10-19T06:01:09;10.85;;;5.10;;
53881;SDS011;39794;55.782;37.452;2022-10-19T06:03:37;8.10;;;5.38;;
53881;SDS011;39794;55.782;37.452;2022-10-19T06:06:07;9.23;;;5.00;;
53881;SDS011;39794;55.782;37.452;2022-10-19T06:08:36;7.55;;;4.50;;
53881;SDS011;39794;55.782;37.452;2022-10-19T06:11:06;10.43;;;4.78;;
53881;SDS011;39794;55.782;37.452;2022-10-19T06:13:35;8.43;;;5.05;;
53881;SDS011;39794;55.782;37.452;2022-10-19T06:16:05;9.63;;;5.40;;
53881;SDS011;39794;55.782;37.452;2022-10-19T06:18:34;10.63;;;5.50;;
53881;SDS011;39794;55.782;37.452;2022-10-19T06:21:07;8.98;;;5.35;;
53881;SDS011;39794;55.782;37.452;2022-10-19T06:23:38;7.80;;;5.22;;
53881;SDS011;39794;55.782;37.452;2022-10-19T06:26:08;9.60;;;5.75;;
53881;SDS011;39794;55.782;37.452;2022-10-19T06:28:38;8.57;;;5.40;;
53881;SDS011;39794;55.782;37.452;2022-10-19T06:31:07;7.68;;;4.70;;
53881;SDS011;39794;55.782;37.452;2022-10-19T06:33:37;10.20;;;4.80;;
53881;SDS011;39794;55.782;37.452;2022-10-19T06:36:07;9.95;;;5.63;;
53881;SDS011;39794;55.782;37.452;2022-10-19T06:38:37;8.48;;;5.68;;
53881;SDS011;39794;55.782;37.452;2022-10-19T06:41:06;7.75;;;4.95;;
53881;SDS011;39794;55.782;37.452;2022-10-19T06:43:34;6.00;;;4.00;;
53881;SDS011;39794;55.782;37.452;2022-10-19T06:46:03;9.80;;;5.80;;
53881;SDS011;39794;55.782;37.452;2022-10-19T06:48:32;9.15;;;6.07;;
53881;SDS011;39794;55.782;37.452;2022-10-19T06:51:02;11.63;;;6.78;;
53881;SDS011;39794;55.782;37.452;2022-10-19T06:53:33;9.63;;;6.05;;
53881;SDS011;39794;55.782;37.452;2022-10-19T06:56:03;10.05;;;6.65;;
53881;SDS011;39794;55.782;37.452;2022-10-19T06:58:33;11.55;;;7.50;;
53881;SDS011;39794;55.782;37.452;2022-10-19T07:01:02;10.52;;;7.68;;
53881;SDS011;39794;55.782;37.452;2022-10-19T07:03:34;7.00;;;5.53;;
53881;SDS011;39794;55.782;37.452;2022-10-19T07:06:04;10.10;;;6.65;;
53881;SDS011;39794;55.782;37.452;2022-10-19T07:08:35;10.25;;;7.10;;
53881;SDS011;39794;55.782;37.452;2022-10-19T07:11:05;13.18;;;7.35;;
53881;SDS011;39794;55.782;37.452;2022-10-19T07:13:34;9.10;;;7.32;;
53881;SDS011;39794;55.782;37.452;2022-10-19T07:16:03;10.77;;;6.93;;
53881;SDS011;39794;55.782;37.452;2022-10-19T07:18:33;8.93;;;7.00;;
53881;SDS011;39794;55.782;37.452;2022-10-19T07:21:03;9.23;;;7.63;;
53881;SDS011;39794;55.782;37.452;2022-10-19T07:23:33;9.10;;;7.43;;
53881;SDS011;39794;55.782;37.452;2022-10-19T07:26:04;11.07;;;7.32;;
53881;SDS011;39794;55.782;37.452;2022-10-19T07:28:33;10.80;;;7.72;;
53881;SDS011;39794;55.782;37.452;2022-10-19T07:31:05;10.27;;;7.65;;
53881;SDS011;39794;55.782;37.452;2022-10-19T07:33:34;9.38;;;6.47;;
53881;SDS011;39794;55.782;37.452;2022-10-19T07:36:03;9.80;;;7.57;;
53881;SDS011;39794;55.782;37.452;2022-10-19T07:38:35;10.25;;;8.32;;
53881;SDS011;39794;55.782;37.452;2022-10-19T07:41:04;10.43;;;8.32;;
53881;SDS011;39794;55.782;37.452;2022-10-19T07:43:34;12.70;;;8.73;;
53881;SDS011;39794;55.782;37.452;2022-10-19T07:46:03;12.65;;;8.38;;
53881;SDS011;39794;55.782;37.452;2022-10-19T07:48:33;14.15;;;9.05;;
53881;SDS011;39794;55.782;37.452;2022-10-19T07:51:02;12.15;;;8.95;;
53881;SDS011;39794;55.782;37.452;2022-10-19T07:53:32;14.70;;;9.73;;
53881;SDS011;39794;55.782;37.452;2022-10-19T07:56:05;18.58;;;10.10;;
53881;SDS011;39794;55.782;37.452;2022-10-19T08:01:04;18.83;;;11.63;;
53881;SDS011;39794;55.782;37.452;2022-10-19T08:03:33;14.48;;;10.57;;
53881;SDS011;39794;55.782;37.452;2022-10-19T08:06:22;14.38;;;9.73;;
53881;SDS011;39794;55.782;37.452;2022-10-19T08:08:51;13.23;;;9.57;;
53881;SDS011;39794;55.782;37.452;2022-10-19T08:11:22;14.45;;;8.68;;
53881;SDS011;39794;55.782;37.452;2022-10-19T08:13:52;16.30;;;10.23;;
53881;SDS011;39794;55.782;37.452;2022-10-19T08:16:21;14.55;;;9.30;;
53881;SDS011;39794;55.782;37.452;2022-10-19T08:18:52;16.85;;;9.18;;
53881;SDS011;39794;55.782;37.452;2022-10-19T08:21:23;11.93;;;8.07;;
53881;SDS011;39794;55.782;37.452;2022-10-19T08:23:52;11.25;;;7.32;;
53881;SDS011;39794;55.782;37.452;2022-10-19T08:26:21;12.52;;;8.70;;
53881;SDS011;39794;55.782;37.452;2022-10-19T08:28:50;12.82;;;8.80;;
53881;SDS011;39794;55.782;37.452;2022-10-19T08:31:19;15.60;;;9.40;;
53881;SDS011;39794;55.782;37.452;2022-10-19T08:33:48;11.18;;;8.23;;
53881;SDS011;39794;55.782;37.452;2022-10-19T08:36:17;11.35;;;8.43;;
53881;SDS011;39794;55.782;37.452;2022-10-19T08:38:47;12.63;;;8.80;;
53881;SDS011;39794;55.782;37.452;2022-10-19T08:41:22;12.52;;;8.57;;
53881;SDS011;39794;55.782;37.452;2022-10-19T08:46:48;13.98;;;9.00;;
53881;SDS011;39794;55.782;37.452;2022-10-19T08:49:22;12.85;;;8.30;;
53881;SDS011;39794;55.782;37.452;2022-10-19T08:51:53;14.68;;;8.15;;
53881;SDS011;39794;55.782;37.452;2022-10-19T08:54:36;11.85;;;8.43;;
53881;SDS011;39794;55.782;37.452;2022-10-19T08:57:11;16.63;;;9.77;;
53881;SDS011;39794;55.782;37.452;2022-10-19T09:02:13;11.82;;;7.93;;
53881;SDS011;39794;55.782;37.452;2022-10-19T09:04:45;14.38;;;8.32;;
53881;SDS011;39794;55.782;37.452;2022-10-19T09:07:21;15.57;;;8.57;;
53881;SDS011;39794;55.782;37.452;2022-10-19T09:09:53;12.90;;;8.45;;
53881;SDS011;39794;55.782;37.452;2022-10-19T09:12:30;15.75;;;9.43;;
53881;SDS011;39794;55.782;37.452;2022-10-19T09:15:02;14.52;;;8.63;;
53881;SDS011;39794;55.782;37.452;2022-10-19T09:17:31;13.10;;;8.60;;
53881;SDS011;39794;55.782;37.452;2022-10-19T09:20:00;13.48;;;8.48;;
53881;SDS011;39794;55.782;37.452;2022-10-19T09:22:41;11.10;;;7.07;;
53881;SDS011;39794;55.782;37.452;2022-10-19T09:25:12;13.18;;;8.15;;
53881;SDS011;39794;55.782;37.452;2022-10-19T09:27:43;11.30;;;7.40;;
53881;SDS011;39794;55.782;37.452;2022-10-19T09:30:16;10.68;;;7.63;;
53881;SDS011;39794;55.782;37.452;2022-10-19T09:32:46;11.13;;;7.88;;
53881;SDS011;39794;55.782;37.452;2022-10-19T09:35:18;6.53;;;4.80;;
53881;SDS011;39794;55.782;37.452;2022-10-19T09:37:49;9.73;;;6.57;;
53881;SDS011;39794;55.782;37.452;2022-10-19T09:40:18;11.55;;;7.75;;
53881;SDS011;39794;55.782;37.452;2022-10-19T09:42:49;12.57;;;7.85;;
53881;SDS011;39794;55.782;37.452;2022-10-19T09:47:55;7.45;;;5.53;;
53881;SDS011;39794;55.782;37.452;2022-10-19T09:50:37;11.15;;;7.13;;
53881;SDS011;39794;55.782;37.452;2022-10-19T09:53:14;8.45;;;6.50;;
53881;SDS011;39794;55.782;37.452;2022-10-19T09:55:46;12.00;;;7.15;;
53881;SDS011;39794;55.782;37.452;2022-10-19T09:58:19;7.22;;;5.63;;
53881;SDS011;39794;55.782;37.452;2022-10-19T10:00:48;7.88;;;5.97;;
53881;SDS011;39794;55.782;37.452;2022-10-19T10:03:21;9.50;;;7.03;;
53881;SDS011;39794;55.782;37.452;2022-10-19T10:05:51;8.73;;;5.10;;
53881;SDS011;39794;55.782;37.452;2022-10-19T10:08:21;6.70;;;5.68;;
53881;SDS011;39794;55.782;37.452;2022-10-19T10:10:52;7.30;;;5.35;;
53881;SDS011;39794;55.782;37.452;2022-10-19T10:13:25;10.30;;;5.80;;
53881;SDS011;39794;55.782;37.452;2022-10-19T10:15:55;11.63;;;6.07;;
53881;SDS011;39794;55.782;37.452;2022-10-19T10:18:24;7.15;;;4.85;;
53881;SDS011;39794;55.782;37.452;2022-10-19T10:21:01;6.43;;;4.95;;
53881;SDS011;39794;55.782;37.452;2022-10-19T10:23:33;6.03;;;4.90;;
53881;SDS011;39794;55.782;37.452;2022-10-19T10:26:02;8.43;;;4.35;;
53881;SDS011;39794;55.782;37.452;2022-10-19T10:28:34;7.07;;;4.93;;
53881;SDS011;39794;55.782;37.452;2022-10-19T10:31:14;7.13;;;4.80;;
53881;SDS011;39794;55.782;37.452;2022-10-19T10:33:42;7.78;;;4.97;;
53881;SDS011;39794;55.782;37.452;2022-10-19T10:36:36;7.07;;;4.63;;
53881;SDS011;39794;55.782;37.452;2022-10-19T10:39:06;5.80;;;4.13;;
53881;SDS011;39794;55.782;37.452;2022-10-19T10:41:36;6.50;;;4.80;;
53881;SDS011;39794;55.782;37.452;2022-10-19T10:44:07;9.68;;;5.32;;
53881;SDS011;39794;55.782;37.452;2022-10-19T10:46:48;8.25;;;5.85;;
53881;SDS011;39794;55.782;37.452;2022-10-19T10:49:22;8.38;;;5.88;;
53881;SDS011;39794;55.782;37.452;2022-10-19T10:51:53;9.77;;;5.80;;
53881;SDS011;39794;55.782;37.452;2022-10-19T10:54:23;7.35;;;5.22;;
53881;SDS011;39794;55.782;37.452;2022-10-19T10:57:02;8.20;;;6.40;;
53881;SDS011;39794;55.782;37.452;2022-10-19T10:59:40;7.30;;;6.10;;
53881;SDS011;39794;55.782;37.452;2022-10-19T11:02:27;7.68;;;6.20;;
53881;SDS011;39794;55.782;37.452;2022-10-19T11:05:00;8.88;;;6.10;;
53881;SDS011;39794;55.782;37.452;2022-10-19T11:07:32;10.45;;;6.80;;
53881;SDS011;39794;55.782;37.452;2022-10-19T11:10:02;8.77;;;6.32;;
53881;SDS011;39794;55.782;37.452;2022-10-19T11:12:36;8.13;;;6.88;;
53881;SDS011;39794;55.782;37.452;2022-10-19T11:15:11;9.13;;;6.72;;
53881;SDS011;39794;55.782;37.452;2022-10-19T11:17:47;11.45;;;8.10;;
53881;SDS011;39794;55.782;37.452;2022-10-19T11:20:24;8.10;;;6.70;;
53881;SDS011;39794;55.782;37.452;2022-10-19T11:22:56;8.38;;;7.03;;
53881;SDS011;39794;55.782;37.452;2022-10-19T11:25:32;10.45;;;7.03;;
53881;SDS011;39794;55.782;37.452;2022-10-19T11:28:10;8.02;;;6.63;;
53881;SDS011;39794;55.782;37.452;2022-10-19T11:30:49;9.10;;;7.10;;
53881;SDS011;39794;55.782;37.452;2022-10-19T11:33:29;9.30;;;6.85;;
53881;SDS011;39794;55.782;37.452;2022-10-19T11:36:08;9.15;;;7.10;;
53881;SDS011;39794;55.782;37.452;2022-10-19T11:38:44;9.93;;;6.30;;
53881;SDS011;39794;55.782;37.452;2022-10-19T11:41:20;7.45;;;6.57;;
53881;SDS011;39794;55.782;37.452;2022-10-19T11:43:57;6.95;;;5.30;;
53881;SDS011;39794;55.782;37.452;2022-10-19T11:46:37;8.18;;;6.50;;
53881;SDS011;39794;55.782;37.452;2022-10-19T11:49:14;9.10;;;6.53;;
53881;SDS011;39794;55.782;37.452;2022-10-19T11:51:49;13.40;;;7.20;;
53881;SDS011;39794;55.782;37.452;2022-10-19T11:57:11;10.43;;;7.70;;
53881;SDS011;39794;55.782;37.452;2022-10-19T11:59:45;9.77;;;7.05;;
53881;SDS011;39794;55.782;37.452;2022-10-19T12:05:43;10.38;;;8.18;;
53881;SDS011;39794;55.782;37.452;2022-10-19T12:08:21;10.65;;;7.60;;
53881;SDS011;39794;55.782;37.452;2022-10-19T12:10:56;12.27;;;8.13;;
53881;SDS011;39794;55.782;37.452;2022-10-19T12:13:31;10.20;;;6.88;;
53881;SDS011;39794;55.782;37.452;2022-10-19T12:16:03;9.82;;;5.53;;
53881;SDS011;39794;55.782;37.452;2022-10-19T12:18:34;11.88;;;7.90;;
53881;SDS011;39794;55.782;37.452;2022-10-19T12:21:08;11.68;;;6.90;;
53881;SDS011;39794;55.782;37.452;2022-10-19T12:23:39;9.52;;;5.53;;
53881;SDS011;39794;55.782;37.452;2022-10-19T12:26:10;8.10;;;5.78;;
53881;SDS011;39794;55.782;37.452;2022-10-19T12:28:45;13.02;;;6.80;;
53881;SDS011;39794;55.782;37.452;2022-10-19T12:31:16;11.18;;;8.30;;
53881;SDS011;39794;55.782;37.452;2022-10-19T12:33:46;9.40;;;6.95;;
53881;SDS011;39794;55.782;37.452;2022-10-19T12:36:21;12.55;;;6.63;;
53881;SDS011;39794;55.782;37.452;2022-10-19T12:38:55;9.68;;;7.25;;
53881;SDS011;39794;55.782;37.452;2022-10-19T12:41:28;8.52;;;5.03;;
53881;SDS011;39794;55.782;37.452;2022-10-19T12:44:04;8.73;;;5.32;;
53881;SDS011;39794;55.782;37.452;2022-10-19T12:46:39;10.93;;;7.40;;
53881;SDS011;39794;55.782;37.452;2022-10-19T12:52:13;11.05;;;6.97;;
53881;SDS011;39794;55.782;37.452;2022-10-19T12:54:45;9.50;;;6.47;;
53881;SDS011;39794;55.782;37.452;2022-10-19T12:57:19;9.55;;;7.05;;
53881;SDS011;39794;55.782;37.452;2022-10-19T13:00:00;10.00;;;6.95;;
53881;SDS011;39794;55.782;37.452;2022-10-19T13:02:33;14.27;;;8.25;;
53881;SDS011;39794;55.782;37.452;2022-10-19T13:05:03;11.27;;;7.22;;
53881;SDS011;39794;55.782;37.452;2022-10-19T13:07:34;8.80;;;6.55;;
53881;SDS011;39794;55.782;37.452;2022-10-19T13:10:04;12.70;;;8.30;;
53881;SDS011;39794;55.782;37.452;2022-10-19T13:12:42;9.00;;;6.60;;
53881;SDS011;39794;55.782;37.452;2022-10-19T13:21:44;8.70;;;5.80;;
53881;SDS011;39794;55.782;37.452;2022-10-19T13:24:41;8.80;;;6.32;;
53881;SDS011;39794;55.782;37.452;2022-10-19T13:30:56;9.23;;;6.45;;
53881;SDS011;39794;55.782;37.452;2022-10-19T13:36:23;8.77;;;5.90;;
53881;SDS011;39794;55.782;37.452;2022-10-19T13:39:08;11.00;;;5.78;;
53881;SDS011;39794;55.782;37.452;2022-10-19T13:41:47;11.20;;;5.85;;
53881;SDS011;39794;55.782;37.452;2022-10-19T13:44:23;27.80;;;8.88;;
53881;SDS011;39794;55.782;37.452;2022-10-19T13:50:23;12.27;;;6.03;;
53881;SDS011;39794;55.782;37.452;2022-10-19T13:53:05;8.48;;;6.10;;
53881;SDS011;39794;55.782;37.452;2022-10-19T13:55:56;10.75;;;5.00;;
53881;SDS011;39794;55.782;37.452;2022-10-19T13:58:57;13.82;;;7.07;;
53881;SDS011;39794;55.782;37.452;2022-10-19T14:01:37;7.78;;;6.03;;
53881;SDS011;39794;55.782;37.452;2022-10-19T14:04:16;8.52;;;5.10;;
53881;SDS011;39794;55.782;37.452;2022-10-19T14:06:49;7.90;;;5.53;;
53881;SDS011;39794;55.782;37.452;2022-10-19T14:09:37;10.20;;;5.93;;
53881;SDS011;39794;55.782;37.452;2022-10-19T14:12:18;13.65;;;5.85;;
53881;SDS011;39794;55.782;37.452;2022-10-19T14:17:21;12.40;;;6.13;;
53881;SDS011;39794;55.782;37.452;2022-10-19T14:19:51;9.18;;;5.70;;
53881;SDS011;39794;55.782;37.452;2022-10-19T14:22:26;9.32;;;5.30;;
53881;SDS011;39794;55.782;37.452;2022-10-19T14:25:00;8.85;;;5.75;;
53881;SDS011;39794;55.782;37.452;2022-10-19T14:27:31;8.32;;;5.90;;
53881;SDS011;39794;55.782;37.452;2022-10-19T14:30:02;8.88;;;5.25;;
53881;SDS011;39794;55.782;37.452;2022-10-19T14:32:33;8.02;;;5.00;;
53881;SDS011;39794;55.782;37.452;2022-10-19T14:35:03;7.30;;;4.60;;
53881;SDS011;39794;55.782;37.452;2022-10-19T14:37:33;7.43;;;4.50;;
53881;SDS011;39794;55.782;37.452;2022-10-19T14:40:03;8.27;;;4.20;;
53881;SDS011;39794;55.782;37.452;2022-10-19T14:42:38;6.43;;;4.47;;
53881;SDS011;39794;55.782;37.452;2022-10-19T14:45:11;7.07;;;3.90;;
53881;SDS011;39794;55.782;37.452;2022-10-19T14:50:30;7.25;;;4.85;;
53881;SDS011;39794;55.782;37.452;2022-10-19T14:53:06;6.10;;;4.53;;
53881;SDS011;39794;55.782;37.452;2022-10-19T14:55:45;7.25;;;4.78;;
53881;SDS011;39794;55.782;37.452;2022-10-19T14:58:16;5.65;;;3.88;;
53881;SDS011;39794;55.782;37.452;2022-10-19T15:00:47;7.25;;;3.95;;
53881;SDS011;39794;55.782;37.452;2022-10-19T15:03:19;6.68;;;4.55;;
53881;SDS011;39794;55.782;37.452;2022-10-19T15:05:50;10.02;;;4.30;;
53881;SDS011;39794;55.782;37.452;2022-10-19T15:08:23;4.45;;;3.63;;
53881;SDS011;39794;55.782;37.452;2022-10-19T15:10:57;8.68;;;4.97;;
53881;SDS011;39794;55.782;37.452;2022-10-19T15:13:27;8.20;;;4.35;;
53881;SDS011;39794;55.782;37.452;2022-10-19T15:15:59;9.10;;;4.10;;
53881;SDS011;39794;55.782;37.452;2022-10-19T15:18:34;6.03;;;4.10;;
53881;SDS011;39794;55.782;37.452;2022-10-19T15:21:17;6.32;;;3.53;;
53881;SDS011;39794;55.782;37.452;2022-10-19T15:23:46;6.70;;;3.80;;
53881;SDS011;39794;55.782;37.452;2022-10-19T15:26:16;9.07;;;4.30;;
53881;SDS011;39794;55.782;37.452;2022-10-19T15:28:47;7.30;;;3.38;;
53881;SDS011;39794;55.782;37.452;2022-10-19T15:31:18;6.80;;;3.42;;
53881;SDS011;39794;55.782;37.452;2022-10-19T15:33:48;4.70;;;3.33;;
53881;SDS011;39794;55.782;37.452;2022-10-19T15:36:18;6.15;;;3.25;;
53881;SDS011;39794;55.782;37.452;2022-10-19T15:38:48;7.43;;;3.30;;
53881;SDS011;39794;55.782;37.452;2022-10-19T15:41:46;6.78;;;3.60;;
53881;SDS011;39794;55.782;37.452;2022-10-19T15:44:29;7.88;;;3.15;;